createdAt,value
2023-05-19T00:00:00.857Z,100935.55
2023-05-19T00:03:10.098Z,100944.86
2023-05-19T00:06:18.079Z,100949.06
2023-05-19T00:09:25.150Z,100947.38
2023-05-19T00:12:31.751Z,100948.47
2023-05-19T00:15:39.480Z,100951.94
2023-05-19T00:18:44.922Z,100942.34
2023-05-19T00:21:50.695Z,100948.58
2023-05-19T00:24:57.415Z,100951.33
2023-05-19T00:28:05.757Z,100942.22
2023-05-19T00:31:11.679Z,100948.25
2023-05-19T00:34:18.487Z,100947.66
2023-05-19T00:37:25.569Z,100944.61
2023-05-19T00:40:32.719Z,100946.21
2023-05-19T00:43:38.096Z,100942.52
2023-05-19T00:46:45.065Z,100950.22
2023-05-19T00:49:50.369Z,100945.84
2023-05-19T00:52:57.133Z,100945.94
2023-05-19T00:56:03.684Z,100944.32
2023-05-19T00:59:10.342Z,100950.91
2023-05-19T01:02:15.592Z,100949.07
2023-05-19T01:05:22.731Z,100944.31
2023-05-19T01:08:29.049Z,100946.45
2023-05-19T01:11:36.071Z,100946.15
2023-05-19T01:14:41.680Z,100943.95
2023-05-19T01:18:14.096Z,100951.35
2023-05-19T01:21:30.177Z,100942.44
2023-05-19T01:24:56.701Z,100942.44
2023-05-19T01:28:23.331Z,100942.09
2023-05-19T01:31:32.189Z,100943.80
2023-05-19T01:34:38.510Z,100939.38
2023-05-19T01:37:45.341Z,100940.94
2023-05-19T01:40:52.441Z,100942.31
2023-05-19T01:43:57.721Z,100947.62
2023-05-19T01:47:04.463Z,100940.94
2023-05-19T01:50:10.449Z,100942.17
2023-05-19T01:53:16.435Z,100942.19
2023-05-19T01:56:23.858Z,100938.63
2023-05-19T01:59:53.118Z,100940.55
2023-05-19T02:03:23.473Z,100937.66
2023-05-19T02:07:16.522Z,100941.44
2023-05-19T02:10:37.342Z,100944.19
2023-05-19T02:13:46.127Z,100952.27
2023-05-19T02:16:51.412Z,100954.01
2023-05-19T02:19:59.320Z,100959.02
2023-05-19T02:23:05.951Z,100959.02
2023-05-19T02:26:12.746Z,100966.44
2023-05-19T02:29:19.336Z,100970.58
2023-05-19T02:32:26.380Z,100968.84
2023-05-19T02:35:32.958Z,100973.33
2023-05-19T02:38:39.040Z,100981.21
2023-05-19T02:41:44.585Z,100986.48
2023-05-19T02:44:50.069Z,100994.23
2023-05-19T02:47:56.659Z,100988.17
2023-05-19T02:51:01.852Z,100996.01
2023-05-19T02:54:07.713Z,100998.56
2023-05-19T02:57:13.488Z,101000.92
2023-05-19T03:00:21.146Z,100997.11
2023-05-19T03:03:26.835Z,101001.67
2023-05-19T03:06:33.483Z,101001.80
2023-05-19T03:09:40.106Z,100995.89
2023-05-19T03:12:46.109Z,101003.08
2023-05-19T03:15:52.914Z,101004.76
2023-05-19T03:18:58.775Z,101010.54
2023-05-19T03:22:05.506Z,101005.14
2023-05-19T03:25:12.198Z,101006.11
2023-05-19T03:28:17.794Z,101008.09
2023-05-19T03:31:24.198Z,101004.19
2023-05-19T03:34:30.598Z,101008.04
2023-05-19T03:37:35.845Z,101009.81
2023-05-19T03:40:41.251Z,101004.64
2023-05-19T03:43:47.513Z,101006.63
2023-05-19T03:46:54.825Z,101003.17
2023-05-19T03:50:01.706Z,100999.41
2023-05-19T03:53:16.332Z,101004.73
2023-05-19T03:56:23.847Z,100996.61
2023-05-19T03:59:30.878Z,100997.16
2023-05-19T04:02:37.159Z,101000.23
2023-05-19T04:05:43.919Z,101000.26
2023-05-19T04:08:51.521Z,100998.34
2023-05-19T04:11:58.372Z,100997.49
2023-05-19T04:15:06.036Z,101002.68
2023-05-19T04:18:12.812Z,101013.08
2023-05-19T04:21:18.437Z,101011.66
2023-05-19T04:24:23.545Z,101003.69
2023-05-19T04:27:29.969Z,101005.58
2023-05-19T04:30:35.668Z,101010.55
2023-05-19T04:33:42.250Z,101007.88
2023-05-19T04:36:49.176Z,101010.17
2023-05-19T04:39:55.309Z,101009.00
2023-05-19T04:43:02.771Z,101013.23
2023-05-19T04:46:10.383Z,101015.19
2023-05-19T04:49:19.002Z,101019.62
2023-05-19T04:52:26.941Z,101014.65
2023-05-19T04:55:33.000Z,101011.92
2023-05-19T04:58:41.843Z,101007.67
2023-05-19T05:01:47.814Z,101010.47
2023-05-19T05:04:53.876Z,101015.00
2023-05-19T05:08:01.244Z,101009.98
2023-05-19T05:11:10.311Z,101009.25
2023-05-19T05:14:16.926Z,101013.73
2023-05-19T05:17:27.718Z,101009.74
2023-05-19T05:20:34.994Z,101016.23
2023-05-19T05:23:41.036Z,101019.33
2023-05-19T05:26:49.123Z,101018.33
2023-05-19T05:29:56.450Z,101020.86
2023-05-19T05:33:03.373Z,101012.48
2023-05-19T05:36:11.728Z,101021.52
2023-05-19T05:39:18.472Z,101017.59
2023-05-19T05:42:29.553Z,101020.11
2023-05-19T05:45:35.439Z,101021.95
2023-05-19T05:48:41.886Z,101018.31
2023-05-19T05:52:04.307Z,101015.97
2023-05-19T05:54:59.346Z,101019.06
2023-05-19T05:58:08.621Z,101020.65
2023-05-19T06:01:18.680Z,101020.88
2023-05-19T06:04:26.075Z,101010.47
2023-05-19T06:07:31.751Z,101013.96
2023-05-19T06:10:39.193Z,101024.73
2023-05-19T06:13:46.087Z,101020.48
2023-05-19T06:16:54.946Z,101020.63
2023-05-19T06:20:02.203Z,101014.06
2023-05-19T06:23:08.529Z,101014.20
2023-05-19T06:26:14.102Z,101013.73
2023-05-19T06:29:19.515Z,101010.52
2023-05-19T06:32:26.461Z,101012.27
2023-05-19T06:35:33.244Z,101014.89
2023-05-19T06:38:40.161Z,101014.41
2023-05-19T06:41:46.428Z,101007.52
2023-05-19T06:44:59.792Z,101008.32
2023-05-19T06:48:06.178Z,101009.73
2023-05-19T06:51:12.387Z,101008.31
2023-05-19T06:54:23.140Z,101005.12
2023-05-19T06:57:29.130Z,101004.91
2023-05-19T07:00:35.804Z,101006.11
2023-05-19T07:03:42.744Z,101006.59
2023-05-19T07:06:48.762Z,100996.97
2023-05-19T07:09:55.088Z,101004.15
2023-05-19T07:13:02.203Z,101006.06
2023-05-19T07:16:08.007Z,101004.50
2023-05-19T07:19:16.325Z,101007.80
2023-05-19T07:22:24.335Z,101009.52
2023-05-19T07:25:29.237Z,101003.09
2023-05-19T07:28:36.505Z,101004.45
2023-05-19T07:31:43.495Z,101004.91
2023-05-19T07:34:51.656Z,100992.56
2023-05-19T07:38:00.250Z,100995.08
2023-05-19T07:41:05.561Z,101000.86
2023-05-19T07:44:13.930Z,101004.73
2023-05-19T07:47:19.748Z,100996.53
2023-05-19T07:50:24.947Z,101003.75
2023-05-19T07:53:30.604Z,101002.58
2023-05-19T07:56:37.501Z,100998.45
2023-05-19T07:59:44.689Z,100990.89
2023-05-19T08:02:54.171Z,101001.33
2023-05-19T08:06:01.576Z,101000.63
2023-05-19T08:09:09.034Z,100994.26
2023-05-19T08:12:15.017Z,100985.46
2023-05-19T08:15:24.351Z,100988.49
2023-05-19T08:18:31.975Z,100994.08
2023-05-19T08:21:39.325Z,100989.33
2023-05-19T08:24:45.901Z,100987.79
2023-05-19T08:27:52.210Z,100993.62
2023-05-19T08:30:58.896Z,100990.48
2023-05-19T08:34:06.171Z,100986.09
2023-05-19T08:37:13.942Z,100990.31
2023-05-19T08:40:23.157Z,100985.28
2023-05-19T08:43:28.756Z,100991.83
2023-05-19T08:46:38.363Z,100988.11
2023-05-19T08:49:43.349Z,100977.83
2023-05-19T08:53:21.059Z,100983.02
2023-05-19T08:56:21.588Z,100985.38
2023-05-19T08:59:29.579Z,100985.06
2023-05-19T09:02:36.063Z,100979.02
2023-05-19T09:05:42.483Z,100979.28
2023-05-19T09:08:49.542Z,100982.90
2023-05-19T09:11:55.816Z,100976.33
2023-05-19T09:15:01.103Z,100971.52
2023-05-19T09:18:09.525Z,100966.92
2023-05-19T09:21:17.654Z,100971.64
2023-05-19T09:24:24.332Z,100975.17
2023-05-19T09:27:38.085Z,100971.85
2023-05-19T09:30:45.081Z,100970.38
2023-05-19T09:33:56.845Z,100977.91
2023-05-19T09:37:02.729Z,100975.00
2023-05-19T09:40:11.217Z,100976.20
2023-05-19T09:43:22.626Z,100974.22
2023-05-19T09:46:30.561Z,100969.24
2023-05-19T09:49:39.855Z,100960.18
2023-05-19T09:52:45.326Z,100958.17
2023-05-19T09:55:52.188Z,100952.67
2023-05-19T09:59:01.154Z,100959.62
2023-05-19T10:02:10.124Z,100951.89
2023-05-19T10:05:16.866Z,100955.05
2023-05-19T10:08:24.395Z,100961.36
2023-05-19T10:11:31.099Z,100950.52
2023-05-19T10:14:41.151Z,100950.86
2023-05-19T10:17:46.378Z,100944.99
2023-05-19T10:20:53.674Z,100944.74
2023-05-19T10:24:00.052Z,100945.02
2023-05-19T10:27:18.129Z,100941.05
2023-05-19T10:30:34.749Z,100945.21
2023-05-19T10:34:10.485Z,100943.45
2023-05-19T10:37:44.995Z,100940.36
2023-05-19T10:41:13.066Z,100944.16
2023-05-19T10:44:40.629Z,100936.36
2023-05-19T10:47:55.203Z,100946.18
2023-05-19T10:51:17.147Z,100944.99
2023-05-19T10:54:28.917Z,100951.15
2023-05-19T10:57:43.206Z,100945.48
2023-05-19T11:00:51.890Z,100947.27
2023-05-19T11:04:09.665Z,100942.56
2023-05-19T11:07:18.631Z,100938.36
2023-05-19T11:10:30.157Z,100942.84
2023-05-19T11:13:37.450Z,100943.69
2023-05-19T11:16:50.722Z,100938.06
2023-05-19T11:20:12.087Z,100941.14
2023-05-19T11:23:30.137Z,100939.97
2023-05-19T11:26:56.985Z,100936.28
2023-05-19T11:30:06.813Z,100938.20
2023-05-19T11:33:13.262Z,100937.63
2023-05-19T11:36:19.019Z,100936.11
2023-05-19T11:39:24.574Z,100940.31
2023-05-19T11:42:31.549Z,100930.44
2023-05-19T11:45:41.196Z,100930.56
2023-05-19T11:48:48.748Z,100918.54
2023-05-19T11:51:55.926Z,100923.39
2023-05-19T11:55:03.606Z,100919.16
2023-05-19T11:58:13.501Z,100922.57
2023-05-19T12:01:21.010Z,100917.15
2023-05-19T12:04:26.411Z,100917.68
2023-05-19T12:07:38.780Z,100904.08
2023-05-19T12:10:46.571Z,100904.84
2023-05-19T12:13:54.736Z,100905.70
2023-05-19T12:17:02.548Z,100899.07
2023-05-19T12:20:08.512Z,100907.47
2023-05-19T12:23:15.060Z,100909.46
2023-05-19T12:26:21.784Z,100905.11
2023-05-19T12:29:28.373Z,100904.06
2023-05-19T12:32:33.642Z,100902.70
2023-05-19T12:35:44.586Z,100900.70
2023-05-19T12:38:50.360Z,100900.45
2023-05-19T12:42:01.351Z,100901.67
2023-05-19T12:45:08.463Z,100905.09
2023-05-19T12:48:13.486Z,100907.05
2023-05-19T12:51:20.531Z,100898.01
2023-05-19T12:54:27.369Z,100898.01
2023-05-19T12:57:35.499Z,100898.01
2023-05-19T13:00:43.448Z,100903.91
2023-05-19T13:03:57.067Z,100907.06
2023-05-19T13:07:03.094Z,100913.24
2023-05-19T13:10:10.416Z,100905.64
2023-05-19T13:13:19.054Z,100903.38
2023-05-19T13:16:26.577Z,100905.09
2023-05-19T13:19:33.976Z,100903.36
2023-05-19T13:22:41.920Z,100903.06
2023-05-19T13:25:49.019Z,100899.41
2023-05-19T13:28:54.131Z,100903.11
2023-05-19T13:32:03.636Z,100899.17
2023-05-19T13:35:09.412Z,100906.77
2023-05-19T13:38:15.922Z,100896.62
2023-05-19T13:41:22.766Z,100894.91
2023-05-19T13:44:27.970Z,100905.83
2023-05-19T13:47:33.143Z,100905.83
2023-05-19T13:50:40.762Z,100900.70
2023-05-19T13:53:46.868Z,100898.70
2023-05-19T13:56:55.620Z,100898.70
2023-05-19T14:00:02.639Z,100901.83
2023-05-19T14:03:14.667Z,100901.87
2023-05-19T14:06:21.676Z,100903.35
2023-05-19T14:09:27.994Z,100903.35
2023-05-19T14:12:45.052Z,100901.66
2023-05-19T14:15:44.696Z,100902.52
2023-05-19T14:18:51.522Z,100905.07
2023-05-19T14:21:58.527Z,100901.94
2023-05-19T14:25:05.576Z,100912.03
2023-05-19T14:28:11.517Z,100912.03
2023-05-19T14:31:16.577Z,100909.14
2023-05-19T14:34:24.039Z,100911.34
2023-05-19T14:37:33.301Z,100905.84
2023-05-19T14:40:38.811Z,100912.05
2023-05-19T14:43:46.398Z,100903.47
2023-05-19T14:46:52.910Z,100900.22
2023-05-19T14:49:59.922Z,100906.66
2023-05-19T14:53:05.734Z,100911.42
2023-05-19T14:56:13.849Z,100914.84
2023-05-19T14:59:20.979Z,100907.58
2023-05-19T15:02:27.489Z,100913.11
2023-05-19T15:05:32.262Z,100914.36
2023-05-19T15:08:39.600Z,100913.88
2023-05-19T15:11:46.556Z,100913.64
2023-05-19T15:14:52.245Z,100914.77
2023-05-19T15:17:57.711Z,100915.07
2023-05-19T15:21:04.296Z,100911.39
2023-05-19T15:24:10.133Z,100916.55
2023-05-19T15:27:16.225Z,100915.45
2023-05-19T15:30:22.078Z,100920.85
2023-05-19T15:33:26.986Z,100920.84
2023-05-19T15:36:32.255Z,100919.97
2023-05-19T15:39:38.016Z,100925.08
2023-05-19T15:42:44.986Z,100925.08
2023-05-19T15:45:51.062Z,100924.23
2023-05-19T15:48:56.486Z,100929.60
2023-05-19T15:52:02.506Z,100929.60
2023-05-19T15:55:08.718Z,100930.43
2023-05-19T15:58:16.335Z,100936.94
2023-05-19T16:01:21.558Z,100947.03
2023-05-19T16:04:27.571Z,100947.03
2023-05-19T16:07:32.326Z,100947.27
2023-05-19T16:10:36.780Z,100948.60
2023-05-19T16:13:42.407Z,100951.59
2023-05-19T16:16:47.964Z,100957.97
2023-05-19T16:19:56.122Z,100960.41
2023-05-19T16:23:02.788Z,100955.42
2023-05-19T16:26:08.418Z,100958.91
2023-05-19T16:29:14.870Z,100959.89
2023-05-19T16:32:21.681Z,100960.83
2023-05-19T16:35:28.771Z,100962.59
2023-05-19T16:38:35.375Z,100965.48
2023-05-19T16:41:40.917Z,100963.88
2023-05-19T16:44:46.651Z,100964.22
2023-05-19T16:47:53.409Z,100964.05
2023-05-19T16:51:02.569Z,100965.29
2023-05-19T16:54:10.084Z,100963.64
2023-05-19T16:57:16.934Z,100962.23
2023-05-19T17:00:24.297Z,100956.95
2023-05-19T17:03:31.722Z,100959.81
2023-05-19T17:06:38.943Z,100966.53
2023-05-19T17:09:44.736Z,100969.78
2023-05-19T17:12:51.585Z,100969.20
2023-05-19T17:15:58.750Z,100978.12
2023-05-19T17:19:04.586Z,100978.64
2023-05-19T17:22:11.107Z,100982.62
2023-05-19T17:25:17.494Z,100983.59
2023-05-19T17:28:23.375Z,100987.64
2023-05-19T17:31:31.982Z,100981.20
2023-05-19T17:34:38.736Z,100990.67
2023-05-19T17:37:44.688Z,100996.83
2023-05-19T17:40:44.198Z,100998.49
2023-05-19T17:43:50.786Z,100996.05
2023-05-19T17:46:58.069Z,100999.27
2023-05-19T17:50:03.959Z,101002.42
2023-05-19T17:53:09.738Z,101010.27
2023-05-19T17:56:18.162Z,101009.48
2023-05-19T17:59:23.121Z,101012.59
2023-05-19T18:02:27.861Z,101010.71
2023-05-19T18:05:35.036Z,101019.06
2023-05-19T18:08:41.192Z,101022.20
2023-05-19T18:11:46.617Z,101021.05
2023-05-19T18:14:53.201Z,101022.02
2023-05-19T18:17:59.258Z,101022.58
2023-05-19T18:21:05.959Z,101027.36
2023-05-19T18:24:13.418Z,101021.69
2023-05-19T18:27:18.856Z,101023.34
2023-05-19T18:30:24.872Z,101024.66
2023-05-19T18:33:31.899Z,101019.02
2023-05-19T18:36:38.874Z,101030.06
2023-05-19T18:39:44.631Z,101025.34
2023-05-19T18:42:50.633Z,101026.67
2023-05-19T18:45:55.945Z,101030.67
2023-05-19T18:49:03.744Z,101018.86
2023-05-19T18:52:09.269Z,101025.67
2023-05-19T18:55:16.047Z,101024.40
2023-05-19T18:58:23.316Z,101035.44
2023-05-19T19:01:30.158Z,101034.50
2023-05-19T19:04:36.195Z,101039.98
2023-05-19T19:07:42.970Z,101036.53
2023-05-19T19:10:50.348Z,101033.55
2023-05-19T19:14:01.737Z,101045.64
2023-05-19T19:17:07.701Z,101043.17
2023-05-19T19:20:15.279Z,101043.81
2023-05-19T19:23:20.608Z,101048.91
2023-05-19T19:26:25.678Z,101044.64
2023-05-19T19:29:30.632Z,101041.42
2023-05-19T19:32:38.527Z,101043.34
2023-05-19T19:35:46.565Z,101047.14
2023-05-19T19:38:54.157Z,101050.21
2023-05-19T19:42:01.944Z,101042.30
2023-05-19T19:45:05.851Z,101044.52
2023-05-19T19:47:52.669Z,101047.27
2023-05-19T19:50:45.861Z,101048.11
2023-05-19T19:53:38.567Z,101055.88
2023-05-19T19:56:45.136Z,101054.97
2023-05-19T19:59:50.888Z,101054.49
2023-05-19T20:03:05.135Z,101051.06
2023-05-19T20:06:05.639Z,101059.33
2023-05-19T20:09:12.701Z,101057.25
2023-05-19T20:12:18.434Z,101060.84
2023-05-19T20:15:25.558Z,101059.58
2023-05-19T20:18:32.236Z,101061.58
2023-05-19T20:21:38.639Z,101067.01
2023-05-19T20:24:43.542Z,101069.84
2023-05-19T20:27:49.750Z,101075.47
2023-05-19T20:30:56.303Z,101079.41
2023-05-19T20:34:03.580Z,101085.31
2023-05-19T20:37:11.044Z,101074.75
2023-05-19T20:40:19.916Z,101083.34
2023-05-19T20:43:25.358Z,101089.79
2023-05-19T20:46:31.263Z,101084.44
2023-05-19T20:49:37.756Z,101087.52
2023-05-19T20:52:42.955Z,101087.16
2023-05-19T20:55:49.060Z,101085.48
2023-05-19T20:58:55.496Z,101083.70
2023-05-19T21:02:01.545Z,101090.53
2023-05-19T21:05:06.256Z,101092.39
2023-05-19T21:08:15.569Z,101093.56
2023-05-19T21:11:21.744Z,101099.86
2023-05-19T21:14:27.871Z,101106.59
2023-05-19T21:17:33.028Z,101107.58
2023-05-19T21:20:39.097Z,101101.27
2023-05-19T21:23:45.381Z,101107.47
2023-05-19T21:26:50.965Z,101103.00
2023-05-19T21:29:56.695Z,101094.55
2023-05-19T21:33:03.506Z,101095.31
2023-05-19T21:36:09.056Z,101101.59
2023-05-19T21:39:15.141Z,101099.86
2023-05-19T21:42:21.729Z,101106.38
2023-05-19T21:45:27.122Z,101105.08
2023-05-19T21:48:33.590Z,101094.58
2023-05-19T21:51:42.334Z,101099.69
2023-05-19T21:54:48.185Z,101110.67
2023-05-19T21:57:55.986Z,101112.89
2023-05-19T22:01:07.902Z,101110.41
2023-05-19T22:04:18.629Z,101114.02
2023-05-19T22:07:25.171Z,101110.03
2023-05-19T22:10:30.480Z,101113.50
2023-05-19T22:13:40.257Z,101115.60
2023-05-19T22:16:47.184Z,101109.67
2023-05-19T22:19:54.088Z,101108.60
2023-05-19T22:23:00.464Z,101117.53
2023-05-19T22:26:08.365Z,101113.64
2023-05-19T22:29:14.325Z,101110.63
2023-05-19T22:32:24.820Z,101108.67
2023-05-19T22:35:30.826Z,101120.73
2023-05-19T22:38:36.019Z,101118.44
2023-05-19T22:41:42.643Z,101116.16
2023-05-19T22:44:48.390Z,101119.55
2023-05-19T22:47:55.791Z,101116.83
2023-05-19T22:51:01.765Z,101112.77
2023-05-19T22:54:08.732Z,101119.23
2023-05-19T22:57:13.817Z,101114.09
2023-05-19T23:00:21.773Z,101122.59
2023-05-19T23:03:26.889Z,101111.59
2023-05-19T23:06:32.307Z,101116.14
2023-05-19T23:09:37.748Z,101114.13
2023-05-19T23:12:43.828Z,101120.03
2023-05-19T23:15:42.192Z,101122.16
2023-05-19T23:18:42.319Z,101121.49
2023-05-19T23:21:47.550Z,101118.06
2023-05-19T23:24:53.602Z,101117.40
2023-05-19T23:28:00.037Z,101119.84
2023-05-19T23:31:09.942Z,101121.95
2023-05-19T23:34:15.638Z,101117.88
2023-05-19T23:37:21.649Z,101123.61
2023-05-19T23:40:28.016Z,101123.46
2023-05-19T23:43:33.493Z,101120.38
2023-05-19T23:46:39.806Z,101120.26
2023-05-19T23:49:47.561Z,101124.41
2023-05-19T23:52:54.662Z,101122.36
2023-05-19T23:56:00.162Z,101125.33
2023-05-19T23:59:06.933Z,101123.27
